Roulo, Michigan
Current Conditions -  °F | °C
As of 10:53 PM on Tuesday 21 Oct 2014 (Local Time) from KYIP Reporting Station
Overcast Overcast  
Wind Chill: 43°   Ceiling: 2200
Heat Index: 48°   Visibility: 10mi
Dew Point: 36°   Wind: 12mph
Humidity: 63%   Direction: 360°N
Pressure: 30.22"   Gusts: 20mph
Location:  42.1781°N, 83.4854°W
Report Text: KYIP 220253Z AUTO 36010G17KT 10SM OVC022 09/02 A3022 RMK AO2 SLP232 T00890022 51016 TSNO
Loading
Personal Weather Stations






























Interactive Weather Map
Tropical Storm Tracking
New forecast layout! Learn more

10-Day Weather Forecast

Advertisements
Track Severe Weather on mobile